createdAt,value
2022-07-30T00:03:15.270Z,57.61
2022-07-30T00:08:16.782Z,57.43
2022-07-30T00:13:18.949Z,57.43
2022-07-30T00:18:20.417Z,57.17
2022-07-30T00:23:24.003Z,56.98
2022-07-30T00:28:25.478Z,57.13
2022-07-30T00:33:27.367Z,56.95
2022-07-30T00:38:28.924Z,56.81
2022-07-30T00:43:30.381Z,56.66
2022-07-30T00:48:31.865Z,56.77
2022-07-30T00:53:34.519Z,56.90
2022-07-30T00:58:35.982Z,56.86
2022-07-30T01:03:37.727Z,56.74
2022-07-30T01:08:39.205Z,56.70
2022-07-30T01:13:40.729Z,56.73
2022-07-30T01:19:03.791Z,56.70
2022-07-30T01:24:25.709Z,56.90
2022-07-30T01:29:28.517Z,56.82
2022-07-30T01:34:32.862Z,56.81
2022-07-30T01:39:35.916Z,56.59
2022-07-30T01:44:39.170Z,56.88
2022-07-30T01:49:41.707Z,56.95
2022-07-30T01:54:45.500Z,56.56
2022-07-30T01:59:50.488Z,56.81
2022-07-30T02:04:52.074Z,56.61
2022-07-30T02:10:07.809Z,57.11
2022-07-30T02:15:17.411Z,56.93
2022-07-30T02:20:19.268Z,56.87
2022-07-30T02:25:29.011Z,56.96
2022-07-30T02:30:32.807Z,57.04
2022-07-30T02:35:36.228Z,56.96
2022-07-30T02:40:41.668Z,56.80
2022-07-30T02:45:46.677Z,56.98
2022-07-30T02:50:51.018Z,57.00
2022-07-30T02:55:55.406Z,56.85
2022-07-30T03:00:57.761Z,57.10
2022-07-30T03:06:00.446Z,57.25
2022-07-30T03:11:04.570Z,57.09
2022-07-30T03:16:09.983Z,57.06
2022-07-30T03:21:13.289Z,57.25
2022-07-30T03:26:19.527Z,57.30
2022-07-30T03:31:21.225Z,57.60
2022-07-30T03:36:23.089Z,57.66
2022-07-30T03:41:24.860Z,57.86
2022-07-30T03:46:27.699Z,58.22
2022-07-30T03:51:33.030Z,58.10
2022-07-30T03:56:35.615Z,58.21
2022-07-30T04:01:37.310Z,58.32
2022-07-30T04:06:39.818Z,58.34
2022-07-30T04:11:42.082Z,58.68
2022-07-30T04:16:54.969Z,58.69
2022-07-30T04:21:57.577Z,58.42
2022-07-30T04:27:01.021Z,58.61
2022-07-30T04:32:04.273Z,58.83
2022-07-30T04:37:05.734Z,58.72
2022-07-30T04:42:07.372Z,58.75
2022-07-30T04:47:09.553Z,58.38
2022-07-30T04:52:12.656Z,58.38
2022-07-30T04:57:15.660Z,58.28
2022-07-30T05:02:20.273Z,58.29
2022-07-30T05:07:22.649Z,58.06
2022-07-30T05:12:34.097Z,58.10
2022-07-30T05:17:36.534Z,57.67
2022-07-30T05:22:38.034Z,57.61
2022-07-30T05:27:44.235Z,57.31
2022-07-30T05:32:45.884Z,57.15
2022-07-30T05:37:48.729Z,57.21
2022-07-30T05:42:50.240Z,57.36
2022-07-30T05:47:52.014Z,57.18
2022-07-30T05:52:53.680Z,57.38
2022-07-30T05:57:55.129Z,57.14
2022-07-30T06:02:56.582Z,57.00
2022-07-30T06:07:58.300Z,56.97
2022-07-30T06:12:59.876Z,57.26
2022-07-30T06:18:02.172Z,57.10
2022-07-30T06:23:03.948Z,57.02
2022-07-30T06:28:21.250Z,57.02
2022-07-30T06:33:26.839Z,57.79
2022-07-30T06:38:28.309Z,57.18
2022-07-30T06:43:29.974Z,57.22
2022-07-30T06:48:31.834Z,57.10
2022-07-30T06:53:33.398Z,57.24
2022-07-30T06:58:41.524Z,57.32
2022-07-30T07:03:43.044Z,57.32
2022-07-30T07:08:44.480Z,56.83
2022-07-30T07:13:45.928Z,56.65
2022-07-30T07:18:48.499Z,56.69
2022-07-30T07:23:49.965Z,56.23
2022-07-30T07:28:51.413Z,56.71
2022-07-30T07:33:54.509Z,56.75
2022-07-30T07:38:56.085Z,56.70
2022-07-30T07:43:57.567Z,56.68
2022-07-30T07:49:01.431Z,56.49
2022-07-30T07:54:20.474Z,56.37
2022-07-30T07:59:22.989Z,55.99
2022-07-30T08:04:26.996Z,56.05
2022-07-30T08:09:40.661Z,55.54
2022-07-30T08:14:46.062Z,55.72
2022-07-30T08:19:47.650Z,55.90
2022-07-30T08:24:49.166Z,55.68
2022-07-30T08:29:50.625Z,55.82
2022-07-30T08:34:52.067Z,56.04
2022-07-30T08:39:54.038Z,56.39
2022-07-30T08:44:56.326Z,56.51
2022-07-30T08:50:04.399Z,57.26
2022-07-30T08:55:06.420Z,56.54
2022-07-30T09:00:09.260Z,56.56
2022-07-30T09:05:12.147Z,56.62
2022-07-30T09:10:13.608Z,57.46
2022-07-30T09:15:18.299Z,57.54
2022-07-30T09:20:22.354Z,57.83
2022-07-30T09:25:35.522Z,59.05
2022-07-30T09:30:45.593Z,60.06
2022-07-30T09:35:56.028Z,61.34
2022-07-30T09:40:58.302Z,62.20
2022-07-30T09:46:01.535Z,62.88
2022-07-30T09:51:03.072Z,63.62
2022-07-30T09:56:25.231Z,64.21
2022-07-30T10:01:49.546Z,64.38
2022-07-30T10:06:49.946Z,66.26
2022-07-30T10:11:53.945Z,66.86
2022-07-30T10:16:56.523Z,69.58
2022-07-30T10:21:59.499Z,70.14
2022-07-30T10:27:05.891Z,71.81
2022-07-30T10:32:09.408Z,71.02
2022-07-30T10:37:13.471Z,71.85
2022-07-30T10:42:29.915Z,73.26
2022-07-30T10:47:34.729Z,73.08
2022-07-30T10:52:45.895Z,73.94
2022-07-30T10:58:17.953Z,73.23
2022-07-30T11:03:40.364Z,72.90
2022-07-30T11:08:45.387Z,73.07
2022-07-30T11:13:56.828Z,73.94
2022-07-30T11:19:55.047Z,74.12
2022-07-30T11:24:47.253Z,74.11
2022-07-30T11:29:51.630Z,74.08
2022-07-30T11:35:12.997Z,74.82
2022-07-30T11:40:14.861Z,75.49
2022-07-30T11:45:16.603Z,76.12
2022-07-30T11:50:27.247Z,76.01
2022-07-30T11:55:31.221Z,76.14
2022-07-30T12:00:39.698Z,75.87
2022-07-30T12:05:42.103Z,76.37
2022-07-30T12:10:46.232Z,76.92
2022-07-30T12:15:48.811Z,77.43
2022-07-30T12:21:01.309Z,78.94
2022-07-30T12:26:03.252Z,79.28
2022-07-30T12:31:04.842Z,80.65
2022-07-30T12:36:06.514Z,82.33
2022-07-30T12:41:07.964Z,80.74
2022-07-30T12:46:14.738Z,80.97
2022-07-30T12:51:16.803Z,82.26
2022-07-30T12:56:30.037Z,84.03
2022-07-30T13:01:44.680Z,83.91
2022-07-30T13:07:07.161Z,84.26
2022-07-30T13:12:13.249Z,84.86
2022-07-30T13:17:14.730Z,84.54
2022-07-30T13:22:16.196Z,85.51
2022-07-30T13:27:18.161Z,85.81
2022-07-30T13:32:19.918Z,86.29
2022-07-30T13:37:21.420Z,86.70
2022-07-30T13:42:25.255Z,87.20
2022-07-30T13:47:26.775Z,87.70
2022-07-30T13:52:28.336Z,88.57
2022-07-30T13:57:29.821Z,88.80
2022-07-30T14:02:31.737Z,90.39
2022-07-30T14:07:37.806Z,89.71
2022-07-30T14:12:40.023Z,90.14
2022-07-30T14:17:41.506Z,91.35
2022-07-30T14:22:43.110Z,91.29
2022-07-30T14:27:44.962Z,90.56
2022-07-30T14:32:52.613Z,91.42
2022-07-30T14:37:59.052Z,91.73
2022-07-30T14:43:00.550Z,92.01
2022-07-30T14:48:02.493Z,91.82
2022-07-30T14:53:04.020Z,91.05
2022-07-30T14:58:05.508Z,90.82
2022-07-30T15:03:06.954Z,90.77
2022-07-30T15:08:08.551Z,90.48
2022-07-30T15:13:10.014Z,90.46
2022-07-30T15:18:13.278Z,90.70
2022-07-30T15:23:14.835Z,92.17
2022-07-30T15:28:17.084Z,91.08
2022-07-30T15:33:19.035Z,90.36
2022-07-30T15:38:20.570Z,92.25
2022-07-30T15:43:22.212Z,90.63
2022-07-30T15:48:26.917Z,90.90
2022-07-30T15:53:31.048Z,91.19
2022-07-30T15:58:32.835Z,90.33
2022-07-30T16:03:34.318Z,91.23
2022-07-30T16:08:35.795Z,91.98
2022-07-30T16:13:37.311Z,91.93
2022-07-30T16:18:38.791Z,91.48
2022-07-30T16:23:40.242Z,90.94
2022-07-30T16:28:41.765Z,90.97
2022-07-30T16:33:43.271Z,92.55
2022-07-30T16:38:44.719Z,93.01
2022-07-30T16:43:46.503Z,91.63
2022-07-30T16:48:50.502Z,91.92
2022-07-30T16:53:52.197Z,91.96
2022-07-30T16:58:53.792Z,92.62
2022-07-30T17:03:55.288Z,93.05
2022-07-30T17:08:56.804Z,93.12
2022-07-30T17:13:59.510Z,92.59
2022-07-30T17:19:01.089Z,93.37
2022-07-30T17:24:11.818Z,92.95
2022-07-30T17:29:15.159Z,93.19
2022-07-30T17:34:20.282Z,92.28
2022-07-30T17:40:27.766Z,93.35
2022-07-30T17:44:43.459Z,93.46
2022-07-30T17:49:44.934Z,92.91
2022-07-30T17:54:46.416Z,93.12
2022-07-30T17:59:51.435Z,93.23
2022-07-30T18:04:56.175Z,91.47
2022-07-30T18:09:58.464Z,92.70
2022-07-30T18:15:00.916Z,93.78
2022-07-30T18:20:02.484Z,92.16
2022-07-30T18:25:04.248Z,93.85
2022-07-30T18:30:09.566Z,93.16
2022-07-30T18:35:14.555Z,93.32
2022-07-30T18:40:23.681Z,93.68
2022-07-30T18:45:26.912Z,94.17
2022-07-30T18:50:28.465Z,94.03
2022-07-30T18:55:30.365Z,93.83
2022-07-30T19:00:35.159Z,93.98
2022-07-30T19:05:37.633Z,94.60
2022-07-30T19:10:40.015Z,95.05
2022-07-30T19:15:41.536Z,95.02
2022-07-30T19:20:43.545Z,94.97
2022-07-30T19:25:45.001Z,95.17
2022-07-30T19:30:46.459Z,94.67
2022-07-30T19:35:47.998Z,94.38
2022-07-30T19:40:49.963Z,94.38
2022-07-30T19:45:51.817Z,94.42
2022-07-30T19:50:53.311Z,95.26
2022-07-30T19:55:56.504Z,95.15
2022-07-30T20:00:58.862Z,95.82
2022-07-30T20:06:02.412Z,94.71
2022-07-30T20:11:07.326Z,93.29
2022-07-30T20:16:12.092Z,95.24
2022-07-30T20:21:16.185Z,95.48
2022-07-30T20:26:19.143Z,94.50
2022-07-30T20:31:21.594Z,94.59
2022-07-30T20:36:23.497Z,94.45
2022-07-30T20:41:25.111Z,93.46
2022-07-30T20:46:26.541Z,93.60
2022-07-30T20:51:33.684Z,95.17
2022-07-30T20:56:35.899Z,95.02
2022-07-30T21:01:37.433Z,95.09
2022-07-30T21:06:44.249Z,94.05
2022-07-30T21:17:08.362Z,94.51
2022-07-30T21:22:12.162Z,94.56
2022-07-30T21:27:15.828Z,94.36
2022-07-30T21:32:19.806Z,95.54
2022-07-30T21:37:36.235Z,95.33
2022-07-30T21:42:48.303Z,95.11
2022-07-30T21:47:51.014Z,95.62
2022-07-30T21:52:53.472Z,94.95
2022-07-30T21:57:54.985Z,96.49
2022-07-30T22:02:57.460Z,96.13
2022-07-30T22:07:58.911Z,96.62
2022-07-30T22:13:00.410Z,97.18
2022-07-30T22:18:02.202Z,96.90
2022-07-30T22:23:04.734Z,96.73
2022-07-30T22:28:06.800Z,96.51
2022-07-30T22:33:15.310Z,96.27
2022-07-30T22:38:19.713Z,97.52
2022-07-30T22:43:21.427Z,96.55
2022-07-30T22:48:28.092Z,97.20
2022-07-30T22:54:03.630Z,97.22
2022-07-30T22:58:52.013Z,96.53
2022-07-30T23:03:53.489Z,96.76
2022-07-30T23:08:55.384Z,95.01
2022-07-30T23:12:32.756Z,94.04
2022-07-30T23:13:59.265Z,96.71
2022-07-30T23:19:01.177Z,94.98
2022-07-30T23:24:02.632Z,95.60
2022-07-30T23:29:04.084Z,94.90
2022-07-30T23:34:06.425Z,94.64
2022-07-30T23:39:07.890Z,95.20
2022-07-30T23:44:09.337Z,94.71
2022-07-30T23:49:11.234Z,94.65
2022-07-30T23:54:12.730Z,94.68
2022-07-30T23:59:15.239Z,94.54
